SAEZ/EZE METAR and TAF weather

Enter ICAO airport designator
Station Type Date Time Source
SAEZ METAR 2019/02/17 16:00 UTC NOAA

SAEZ 171600Z 04008KT 9999 SCT045 30/18 Q1014 NOSIG


Station Type Date Time Source
SAEZ Decoded METAR 2019/02/17 16:00 UTC NOAA

Ezeiza Aerodrome, Argentina (SAEZ) 34-49S 058-32W 20M
Feb 17, 2019 - 11:00 AM EST / 2019.02.17 1600 UTC
Wind: from the NE (040 degrees) at 9 MPH (8 KT):0
Visibility: greater than 7 mile(s):0
Sky conditions: partly cloudy
Temperature: 86 F (30 C)
Dew Point: 64 F (18 C)
Relative Humidity: 48%
Pressure (altimeter): 29.94 in. Hg (1014 hPa)
ob: SAEZ 171600Z 04008KT 9999 SCT045 30/18 Q1014 NOSIG
cycle: 16

Station Type Date Time Source
SAEZ TAF 2019/02/17 12:15 UTC NOAA

TAF TAF SAEZ 171100Z 1712/1812 02005KT CAVOK TX32/1718Z TN20/1809Z
BECMG 1716/1718 05010KT


Example: see airport list